sensor_id;sensor_type;location;lat;lon;timestamp;temperature;humidity
11242;DHT22;5678;52.370;9.006;2022-07-17T00:01:23;10.80;99.90
11242;DHT22;5678;52.370;9.006;2022-07-17T00:03:51;10.70;99.90
11242;DHT22;5678;52.370;9.006;2022-07-17T00:06:21;10.70;99.90
11242;DHT22;5678;52.370;9.006;2022-07-17T00:08:48;10.60;99.90
11242;DHT22;5678;52.370;9.006;2022-07-17T00:11:17;10.50;99.90
11242;DHT22;5678;52.370;9.006;2022-07-17T00:13:45;10.50;99.90
11242;DHT22;5678;52.370;9.006;2022-07-17T00:16:12;10.40;99.90
11242;DHT22;5678;52.370;9.006;2022-07-17T00:18:41;10.40;99.90
11242;DHT22;5678;52.370;9.006;2022-07-17T00:21:09;10.40;99.90
11242;DHT22;5678;52.370;9.006;2022-07-17T00:23:38;10.30;99.90
11242;DHT22;5678;52.370;9.006;2022-07-17T00:26:06;10.30;99.90
11242;DHT22;5678;52.370;9.006;2022-07-17T00:28:34;10.30;99.90
11242;DHT22;5678;52.370;9.006;2022-07-17T00:31:02;10.20;99.90
11242;DHT22;5678;52.370;9.006;2022-07-17T00:33:30;10.20;99.90
11242;DHT22;5678;52.370;9.006;2022-07-17T00:35:59;10.10;99.90
11242;DHT22;5678;52.370;9.006;2022-07-17T00:38:27;10.10;99.90
11242;DHT22;5678;52.370;9.006;2022-07-17T00:40:56;10.10;99.90
11242;DHT22;5678;52.370;9.006;2022-07-17T00:43:26;10.10;99.90
11242;DHT22;5678;52.370;9.006;2022-07-17T00:45:55;10.00;99.90
11242;DHT22;5678;52.370;9.006;2022-07-17T00:48:24;10.00;99.90
11242;DHT22;5678;52.370;9.006;2022-07-17T00:50:53;10.00;99.90
11242;DHT22;5678;52.370;9.006;2022-07-17T00:53:22;9.90;99.90
11242;DHT22;5678;52.370;9.006;2022-07-17T00:55:50;9.90;99.90
11242;DHT22;5678;52.370;9.006;2022-07-17T00:58:22;9.90;99.90
11242;DHT22;5678;52.370;9.006;2022-07-17T01:00:51;9.90;99.90
11242;DHT22;5678;52.370;9.006;2022-07-17T01:03:21;9.90;99.90
11242;DHT22;5678;52.370;9.006;2022-07-17T01:05:50;9.80;99.90
11242;DHT22;5678;52.370;9.006;2022-07-17T01:08:18;9.80;99.90
11242;DHT22;5678;52.370;9.006;2022-07-17T01:10:46;9.70;99.90
11242;DHT22;5678;52.370;9.006;2022-07-17T01:13:14;9.70;99.90
11242;DHT22;5678;52.370;9.006;2022-07-17T01:15:44;9.70;99.90
11242;DHT22;5678;52.370;9.006;2022-07-17T01:18:13;9.70;99.90
11242;DHT22;5678;52.370;9.006;2022-07-17T01:20:43;9.60;99.90
11242;DHT22;5678;52.370;9.006;2022-07-17T01:23:12;9.60;99.90
11242;DHT22;5678;52.370;9.006;2022-07-17T01:25:42;9.60;99.90
11242;DHT22;5678;52.370;9.006;2022-07-17T01:28:10;9.60;99.90
11242;DHT22;5678;52.370;9.006;2022-07-17T01:30:45;9.60;99.90
11242;DHT22;5678;52.370;9.006;2022-07-17T01:33:14;9.50;99.90
11242;DHT22;5678;52.370;9.006;2022-07-17T01:35:42;9.50;99.90
11242;DHT22;5678;52.370;9.006;2022-07-17T01:38:11;9.50;99.90
11242;DHT22;5678;52.370;9.006;2022-07-17T01:40:39;9.40;99.90
11242;DHT22;5678;52.370;9.006;2022-07-17T01:43:07;9.40;99.90
11242;DHT22;5678;52.370;9.006;2022-07-17T01:45:35;9.40;99.90
11242;DHT22;5678;52.370;9.006;2022-07-17T01:48:04;9.40;99.90
11242;DHT22;5678;52.370;9.006;2022-07-17T01:50:32;9.30;99.90
11242;DHT22;5678;52.370;9.006;2022-07-17T01:53:00;9.30;99.90
11242;DHT22;5678;52.370;9.006;2022-07-17T01:55:30;9.20;99.90
11242;DHT22;5678;52.370;9.006;2022-07-17T01:57:58;9.20;99.90
11242;DHT22;5678;52.370;9.006;2022-07-17T02:00:25;9.20;99.90
11242;DHT22;5678;52.370;9.006;2022-07-17T02:02:53;9.20;99.90
11242;DHT22;5678;52.370;9.006;2022-07-17T02:05:21;9.20;99.90
11242;DHT22;5678;52.370;9.006;2022-07-17T02:07:49;9.10;99.90
11242;DHT22;5678;52.370;9.006;2022-07-17T02:10:17;9.10;99.90
11242;DHT22;5678;52.370;9.006;2022-07-17T02:12:46;9.00;99.90
11242;DHT22;5678;52.370;9.006;2022-07-17T02:15:14;9.00;99.90
11242;DHT22;5678;52.370;9.006;2022-07-17T02:17:43;9.00;99.90
11242;DHT22;5678;52.370;9.006;2022-07-17T02:20:11;9.00;99.90
11242;DHT22;5678;52.370;9.006;2022-07-17T02:22:40;8.90;99.90
11242;DHT22;5678;52.370;9.006;2022-07-17T02:25:09;8.90;99.90
11242;DHT22;5678;52.370;9.006;2022-07-17T02:27:38;8.90;99.90
11242;DHT22;5678;52.370;9.006;2022-07-17T02:30:10;8.90;99.90
11242;DHT22;5678;52.370;9.006;2022-07-17T02:32:39;8.80;99.90
11242;DHT22;5678;52.370;9.006;2022-07-17T02:35:08;8.80;99.90
11242;DHT22;5678;52.370;9.006;2022-07-17T02:37:37;8.80;99.90
11242;DHT22;5678;52.370;9.006;2022-07-17T02:40:06;8.70;99.90
11242;DHT22;5678;52.370;9.006;2022-07-17T02:42:34;8.70;99.90
11242;DHT22;5678;52.370;9.006;2022-07-17T02:45:02;8.60;99.90
11242;DHT22;5678;52.370;9.006;2022-07-17T02:47:35;8.60;99.90
11242;DHT22;5678;52.370;9.006;2022-07-17T02:50:05;8.60;99.90
11242;DHT22;5678;52.370;9.006;2022-07-17T02:52:34;8.50;99.90
11242;DHT22;5678;52.370;9.006;2022-07-17T02:55:02;8.50;99.90
11242;DHT22;5678;52.370;9.006;2022-07-17T02:57:31;8.50;99.90
11242;DHT22;5678;52.370;9.006;2022-07-17T03:00:00;8.40;99.90
11242;DHT22;5678;52.370;9.006;2022-07-17T03:02:28;8.40;99.90
11242;DHT22;5678;52.370;9.006;2022-07-17T03:04:57;8.30;99.90
11242;DHT22;5678;52.370;9.006;2022-07-17T03:07:25;8.30;99.90
11242;DHT22;5678;52.370;9.006;2022-07-17T03:09:53;8.30;99.90
11242;DHT22;5678;52.370;9.006;2022-07-17T03:12:21;8.30;99.90
11242;DHT22;5678;52.370;9.006;2022-07-17T03:14:49;8.30;99.90
11242;DHT22;5678;52.370;9.006;2022-07-17T03:17:17;8.20;99.90
11242;DHT22;5678;52.370;9.006;2022-07-17T03:19:45;8.20;99.90
11242;DHT22;5678;52.370;9.006;2022-07-17T03:22:15;8.20;99.90
11242;DHT22;5678;52.370;9.006;2022-07-17T03:24:42;8.10;99.90
11242;DHT22;5678;52.370;9.006;2022-07-17T03:27:10;8.10;99.90
11242;DHT22;5678;52.370;9.006;2022-07-17T03:29:38;8.10;99.90
11242;DHT22;5678;52.370;9.006;2022-07-17T03:32:06;8.10;99.90
11242;DHT22;5678;52.370;9.006;2022-07-17T03:34:34;8.10;99.90
11242;DHT22;5678;52.370;9.006;2022-07-17T03:37:02;8.10;99.90
11242;DHT22;5678;52.370;9.006;2022-07-17T03:39:32;8.10;99.90
11242;DHT22;5678;52.370;9.006;2022-07-17T03:42:00;8.10;99.90
11242;DHT22;5678;52.370;9.006;2022-07-17T03:44:28;8.10;99.90
11242;DHT22;5678;52.370;9.006;2022-07-17T03:46:56;8.20;99.90
11242;DHT22;5678;52.370;9.006;2022-07-17T03:49:24;8.20;99.90
11242;DHT22;5678;52.370;9.006;2022-07-17T03:51:52;8.30;99.90
11242;DHT22;5678;52.370;9.006;2022-07-17T03:54:20;8.30;99.90
11242;DHT22;5678;52.370;9.006;2022-07-17T03:56:49;8.40;99.90
11242;DHT22;5678;52.370;9.006;2022-07-17T03:59:17;8.50;99.90
11242;DHT22;5678;52.370;9.006;2022-07-17T04:01:45;8.50;99.90
11242;DHT22;5678;52.370;9.006;2022-07-17T04:04:13;8.60;99.90
11242;DHT22;5678;52.370;9.006;2022-07-17T04:06:41;8.70;99.90
11242;DHT22;5678;52.370;9.006;2022-07-17T04:09:08;8.80;99.90
11242;DHT22;5678;52.370;9.006;2022-07-17T04:11:36;8.80;99.90
11242;DHT22;5678;52.370;9.006;2022-07-17T04:14:06;8.90;99.90
11242;DHT22;5678;52.370;9.006;2022-07-17T04:16:34;8.90;99.90
11242;DHT22;5678;52.370;9.006;2022-07-17T04:19:02;9.00;99.90
11242;DHT22;5678;52.370;9.006;2022-07-17T04:21:29;9.00;99.90
11242;DHT22;5678;52.370;9.006;2022-07-17T04:23:57;9.10;99.90
11242;DHT22;5678;52.370;9.006;2022-07-17T04:26:25;9.10;99.90
11242;DHT22;5678;52.370;9.006;2022-07-17T04:28:53;9.10;99.90
11242;DHT22;5678;52.370;9.006;2022-07-17T04:31:23;9.20;99.90
11242;DHT22;5678;52.370;9.006;2022-07-17T04:33:51;9.30;99.90
11242;DHT22;5678;52.370;9.006;2022-07-17T04:36:20;9.40;99.90
11242;DHT22;5678;52.370;9.006;2022-07-17T04:38:48;9.50;99.90
11242;DHT22;5678;52.370;9.006;2022-07-17T04:41:17;9.60;99.90
11242;DHT22;5678;52.370;9.006;2022-07-17T04:43:45;9.70;99.90
11242;DHT22;5678;52.370;9.006;2022-07-17T04:46:13;9.70;99.90
11242;DHT22;5678;52.370;9.006;2022-07-17T04:48:42;9.80;99.90
11242;DHT22;5678;52.370;9.006;2022-07-17T04:51:10;9.90;99.90
11242;DHT22;5678;52.370;9.006;2022-07-17T04:53:38;10.00;99.90
11242;DHT22;5678;52.370;9.006;2022-07-17T04:56:06;10.10;99.90
11242;DHT22;5678;52.370;9.006;2022-07-17T04:58:34;10.20;99.90
11242;DHT22;5678;52.370;9.006;2022-07-17T05:01:02;10.40;99.90
11242;DHT22;5678;52.370;9.006;2022-07-17T05:03:30;10.50;99.90
11242;DHT22;5678;52.370;9.006;2022-07-17T05:06:00;10.70;99.90
11242;DHT22;5678;52.370;9.006;2022-07-17T05:08:27;10.90;99.90
11242;DHT22;5678;52.370;9.006;2022-07-17T05:10:55;11.10;99.90
11242;DHT22;5678;52.370;9.006;2022-07-17T05:13:23;11.50;99.90
11242;DHT22;5678;52.370;9.006;2022-07-17T05:15:52;11.90;99.90
11242;DHT22;5678;52.370;9.006;2022-07-17T05:18:20;12.20;99.90
11242;DHT22;5678;52.370;9.006;2022-07-17T05:20:48;12.40;99.90
11242;DHT22;5678;52.370;9.006;2022-07-17T05:23:17;12.60;99.90
11242;DHT22;5678;52.370;9.006;2022-07-17T05:25:45;12.70;99.90
11242;DHT22;5678;52.370;9.006;2022-07-17T05:28:13;12.70;99.90
11242;DHT22;5678;52.370;9.006;2022-07-17T05:30:41;12.70;99.90
11242;DHT22;5678;52.370;9.006;2022-07-17T05:33:09;12.80;99.90
11242;DHT22;5678;52.370;9.006;2022-07-17T05:35:37;13.00;99.90
11242;DHT22;5678;52.370;9.006;2022-07-17T05:38:05;13.20;99.90
11242;DHT22;5678;52.370;9.006;2022-07-17T05:40:34;13.40;99.90
11242;DHT22;5678;52.370;9.006;2022-07-17T05:43:02;13.50;99.90
11242;DHT22;5678;52.370;9.006;2022-07-17T05:45:30;13.70;99.90
11242;DHT22;5678;52.370;9.006;2022-07-17T05:47:58;13.80;99.90
11242;DHT22;5678;52.370;9.006;2022-07-17T05:50:26;13.80;99.90
11242;DHT22;5678;52.370;9.006;2022-07-17T05:52:54;13.90;99.90
11242;DHT22;5678;52.370;9.006;2022-07-17T05:55:21;14.00;99.90
11242;DHT22;5678;52.370;9.006;2022-07-17T05:57:51;14.10;99.90
11242;DHT22;5678;52.370;9.006;2022-07-17T06:00:19;14.20;99.90
11242;DHT22;5678;52.370;9.006;2022-07-17T06:02:47;14.30;99.90
11242;DHT22;5678;52.370;9.006;2022-07-17T06:05:15;14.50;99.90
11242;DHT22;5678;52.370;9.006;2022-07-17T06:07:46;14.50;99.90
11242;DHT22;5678;52.370;9.006;2022-07-17T06:10:14;14.70;99.90
11242;DHT22;5678;52.370;9.006;2022-07-17T06:12:43;14.70;99.90
11242;DHT22;5678;52.370;9.006;2022-07-17T06:15:12;15.10;99.90
11242;DHT22;5678;52.370;9.006;2022-07-17T06:17:40;15.10;99.90
11242;DHT22;5678;52.370;9.006;2022-07-17T06:20:11;15.30;99.90
11242;DHT22;5678;52.370;9.006;2022-07-17T06:22:39;15.70;99.90
11242;DHT22;5678;52.370;9.006;2022-07-17T06:25:08;15.90;99.90
11242;DHT22;5678;52.370;9.006;2022-07-17T06:27:38;16.00;99.90
11242;DHT22;5678;52.370;9.006;2022-07-17T06:30:08;16.10;99.90
11242;DHT22;5678;52.370;9.006;2022-07-17T06:32:37;16.30;99.90
11242;DHT22;5678;52.370;9.006;2022-07-17T06:35:06;16.60;99.90
11242;DHT22;5678;52.370;9.006;2022-07-17T06:37:35;16.80;99.90
11242;DHT22;5678;52.370;9.006;2022-07-17T06:40:04;17.00;99.90
11242;DHT22;5678;52.370;9.006;2022-07-17T06:42:32;17.10;99.90
11242;DHT22;5678;52.370;9.006;2022-07-17T06:45:00;17.20;99.90
11242;DHT22;5678;52.370;9.006;2022-07-17T06:47:29;17.50;99.90
11242;DHT22;5678;52.370;9.006;2022-07-17T06:49:58;17.70;99.90
11242;DHT22;5678;52.370;9.006;2022-07-17T06:52:26;18.10;99.90
11242;DHT22;5678;52.370;9.006;2022-07-17T06:54:56;18.20;99.90
11242;DHT22;5678;52.370;9.006;2022-07-17T06:57:24;18.50;99.90
11242;DHT22;5678;52.370;9.006;2022-07-17T06:59:52;18.50;99.90
11242;DHT22;5678;52.370;9.006;2022-07-17T07:02:20;19.10;99.90
11242;DHT22;5678;52.370;9.006;2022-07-17T07:04:48;19.70;99.90
11242;DHT22;5678;52.370;9.006;2022-07-17T07:07:17;20.30;99.90
11242;DHT22;5678;52.370;9.006;2022-07-17T07:09:45;20.90;99.90
11242;DHT22;5678;52.370;9.006;2022-07-17T07:12:13;21.50;99.90
11242;DHT22;5678;52.370;9.006;2022-07-17T07:14:41;21.70;99.90
11242;DHT22;5678;52.370;9.006;2022-07-17T07:17:09;21.80;99.90
11242;DHT22;5678;52.370;9.006;2022-07-17T07:19:37;21.80;99.90
11242;DHT22;5678;52.370;9.006;2022-07-17T07:22:05;21.80;99.90
11242;DHT22;5678;52.370;9.006;2022-07-17T07:24:34;21.80;99.90
11242;DHT22;5678;52.370;9.006;2022-07-17T07:27:02;22.00;99.90
11242;DHT22;5678;52.370;9.006;2022-07-17T07:29:30;22.20;99.90
11242;DHT22;5678;52.370;9.006;2022-07-17T07:31:58;22.60;99.90
11242;DHT22;5678;52.370;9.006;2022-07-17T07:34:26;22.90;99.90
11242;DHT22;5678;52.370;9.006;2022-07-17T07:36:54;23.10;99.90
11242;DHT22;5678;52.370;9.006;2022-07-17T07:39:22;23.20;99.90
11242;DHT22;5678;52.370;9.006;2022-07-17T07:41:51;23.20;99.90
11242;DHT22;5678;52.370;9.006;2022-07-17T07:44:20;23.40;99.90
11242;DHT22;5678;52.370;9.006;2022-07-17T07:46:56;23.50;99.90
11242;DHT22;5678;52.370;9.006;2022-07-17T07:49:24;23.60;99.90
11242;DHT22;5678;52.370;9.006;2022-07-17T07:51:52;23.70;99.90
11242;DHT22;5678;52.370;9.006;2022-07-17T07:54:30;23.60;99.90
11242;DHT22;5678;52.370;9.006;2022-07-17T07:57:00;23.90;99.90
11242;DHT22;5678;52.370;9.006;2022-07-17T07:59:29;24.10;99.90
11242;DHT22;5678;52.370;9.006;2022-07-17T08:01:59;24.50;99.90
11242;DHT22;5678;52.370;9.006;2022-07-17T08:04:27;24.70;99.90
11242;DHT22;5678;52.370;9.006;2022-07-17T08:06:55;24.90;99.20
11242;DHT22;5678;52.370;9.006;2022-07-17T08:09:23;25.10;99.90
11242;DHT22;5678;52.370;9.006;2022-07-17T08:11:51;25.20;99.90
11242;DHT22;5678;52.370;9.006;2022-07-17T08:14:20;25.10;81.70
11242;DHT22;5678;52.370;9.006;2022-07-17T08:16:48;25.00;82.40
11242;DHT22;5678;52.370;9.006;2022-07-17T08:19:16;25.00;89.00
11242;DHT22;5678;52.370;9.006;2022-07-17T08:21:44;25.30;78.90
11242;DHT22;5678;52.370;9.006;2022-07-17T08:24:12;25.20;84.10
11242;DHT22;5678;52.370;9.006;2022-07-17T08:26:40;25.20;99.90
11242;DHT22;5678;52.370;9.006;2022-07-17T08:29:08;25.20;99.90
11242;DHT22;5678;52.370;9.006;2022-07-17T08:31:38;25.20;1.00
11242;DHT22;5678;52.370;9.006;2022-07-17T08:34:06;25.40;1.00
11242;DHT22;5678;52.370;9.006;2022-07-17T08:36:33;25.50;1.00
11242;DHT22;5678;52.370;9.006;2022-07-17T08:39:02;25.30;17.20
11242;DHT22;5678;52.370;9.006;2022-07-17T08:41:30;25.20;29.50
11242;DHT22;5678;52.370;9.006;2022-07-17T08:44:04;25.10;78.60
11242;DHT22;5678;52.370;9.006;2022-07-17T08:46:33;25.20;90.80
11242;DHT22;5678;52.370;9.006;2022-07-17T08:49:05;25.50;99.50
11242;DHT22;5678;52.370;9.006;2022-07-17T08:51:34;25.70;99.90
11242;DHT22;5678;52.370;9.006;2022-07-17T08:54:08;25.70;99.90
11242;DHT22;5678;52.370;9.006;2022-07-17T08:56:36;25.80;99.90
11242;DHT22;5678;52.370;9.006;2022-07-17T08:59:04;26.20;99.90
11242;DHT22;5678;52.370;9.006;2022-07-17T09:01:32;26.50;99.90
11242;DHT22;5678;52.370;9.006;2022-07-17T09:04:01;27.00;99.90
11242;DHT22;5678;52.370;9.006;2022-07-17T09:06:35;26.80;99.90
11242;DHT22;5678;52.370;9.006;2022-07-17T09:09:04;26.50;99.90
11242;DHT22;5678;52.370;9.006;2022-07-17T09:11:42;26.00;99.90
11242;DHT22;5678;52.370;9.006;2022-07-17T09:14:11;25.90;99.90
11242;DHT22;5678;52.370;9.006;2022-07-17T09:16:50;26.00;99.90
11242;DHT22;5678;52.370;9.006;2022-07-17T09:19:30;26.00;99.90
11242;DHT22;5678;52.370;9.006;2022-07-17T09:22:07;25.70;99.90
11242;DHT22;5678;52.370;9.006;2022-07-17T09:24:43;25.80;99.90
11242;DHT22;5678;52.370;9.006;2022-07-17T09:27:13;26.20;99.90
11242;DHT22;5678;52.370;9.006;2022-07-17T09:29:54;26.50;99.90
11242;DHT22;5678;52.370;9.006;2022-07-17T09:32:23;27.00;99.50
11242;DHT22;5678;52.370;9.006;2022-07-17T09:34:53;26.70;98.80
11242;DHT22;5678;52.370;9.006;2022-07-17T09:37:24;26.10;99.60
11242;DHT22;5678;52.370;9.006;2022-07-17T09:39:52;25.60;99.70
11242;DHT22;5678;52.370;9.006;2022-07-17T09:42:23;25.20;99.90
11242;DHT22;5678;52.370;9.006;2022-07-17T09:44:56;25.10;99.90
11242;DHT22;5678;52.370;9.006;2022-07-17T09:47:24;25.20;99.90
11242;DHT22;5678;52.370;9.006;2022-07-17T09:49:54;25.20;99.90
11242;DHT22;5678;52.370;9.006;2022-07-17T09:52:26;25.20;99.90
11242;DHT22;5678;52.370;9.006;2022-07-17T09:54:54;25.20;99.90
11242;DHT22;5678;52.370;9.006;2022-07-17T09:57:43;25.50;99.90
11242;DHT22;5678;52.370;9.006;2022-07-17T10:00:15;26.20;99.90
11242;DHT22;5678;52.370;9.006;2022-07-17T10:02:49;26.70;99.50
11242;DHT22;5678;52.370;9.006;2022-07-17T10:05:18;27.10;98.40
11242;DHT22;5678;52.370;9.006;2022-07-17T10:07:48;27.10;98.90
11242;DHT22;5678;52.370;9.006;2022-07-17T10:10:17;26.90;98.00
11242;DHT22;5678;52.370;9.006;2022-07-17T10:12:47;27.10;96.20
11242;DHT22;5678;52.370;9.006;2022-07-17T10:15:16;27.30;97.00
11242;DHT22;5678;52.370;9.006;2022-07-17T10:17:47;27.50;97.10
11242;DHT22;5678;52.370;9.006;2022-07-17T10:20:24;27.70;95.40
11242;DHT22;5678;52.370;9.006;2022-07-17T10:22:53;27.70;96.60
11242;DHT22;5678;52.370;9.006;2022-07-17T10:25:21;27.90;96.00
11242;DHT22;5678;52.370;9.006;2022-07-17T10:27:51;28.30;95.60
11242;DHT22;5678;52.370;9.006;2022-07-17T10:30:24;28.30;93.60
11242;DHT22;5678;52.370;9.006;2022-07-17T10:32:56;28.50;93.70
11242;DHT22;5678;52.370;9.006;2022-07-17T10:35:25;28.60;93.20
11242;DHT22;5678;52.370;9.006;2022-07-17T10:37:57;28.60;91.50
11242;DHT22;5678;52.370;9.006;2022-07-17T10:40:26;28.40;92.00
11242;DHT22;5678;52.370;9.006;2022-07-17T10:42:56;28.30;91.10
11242;DHT22;5678;52.370;9.006;2022-07-17T10:45:27;27.90;92.10
11242;DHT22;5678;52.370;9.006;2022-07-17T10:47:58;27.80;89.80
11242;DHT22;5678;52.370;9.006;2022-07-17T10:50:29;27.80;91.20
11242;DHT22;5678;52.370;9.006;2022-07-17T10:53:04;27.90;91.80
11242;DHT22;5678;52.370;9.006;2022-07-17T10:55:33;28.30;90.90
11242;DHT22;5678;52.370;9.006;2022-07-17T10:58:01;28.50;90.70
11242;DHT22;5678;52.370;9.006;2022-07-17T11:00:31;28.60;91.50
11242;DHT22;5678;52.370;9.006;2022-07-17T11:03:08;28.70;88.30
11242;DHT22;5678;52.370;9.006;2022-07-17T11:05:36;28.60;90.60
11242;DHT22;5678;52.370;9.006;2022-07-17T11:08:06;28.70;90.60
11242;DHT22;5678;52.370;9.006;2022-07-17T11:10:36;28.40;89.00
11242;DHT22;5678;52.370;9.006;2022-07-17T11:13:09;28.30;91.00
11242;DHT22;5678;52.370;9.006;2022-07-17T11:15:42;28.10;89.40
11242;DHT22;5678;52.370;9.006;2022-07-17T11:18:14;28.20;87.40
11242;DHT22;5678;52.370;9.006;2022-07-17T11:20:47;28.10;88.10
11242;DHT22;5678;52.370;9.006;2022-07-17T11:23:18;28.00;89.80
11242;DHT22;5678;52.370;9.006;2022-07-17T11:25:57;28.10;89.00
11242;DHT22;5678;52.370;9.006;2022-07-17T11:28:34;27.70;89.30
11242;DHT22;5678;52.370;9.006;2022-07-17T11:31:04;27.80;89.80
11242;DHT22;5678;52.370;9.006;2022-07-17T11:33:33;27.90;87.80
11242;DHT22;5678;52.370;9.006;2022-07-17T11:36:01;27.90;90.40
11242;DHT22;5678;52.370;9.006;2022-07-17T11:38:30;27.80;87.30
11242;DHT22;5678;52.370;9.006;2022-07-17T11:40:58;27.70;90.40
11242;DHT22;5678;52.370;9.006;2022-07-17T11:43:28;28.10;91.10
11242;DHT22;5678;52.370;9.006;2022-07-17T11:46:06;28.30;88.90
11242;DHT22;5678;52.370;9.006;2022-07-17T11:48:34;28.50;90.90
11242;DHT22;5678;52.370;9.006;2022-07-17T11:51:02;28.80;91.60
11242;DHT22;5678;52.370;9.006;2022-07-17T11:53:33;29.10;88.90
11242;DHT22;5678;52.370;9.006;2022-07-17T11:56:02;29.20;90.00
11242;DHT22;5678;52.370;9.006;2022-07-17T11:58:41;29.50;85.30
11242;DHT22;5678;52.370;9.006;2022-07-17T12:01:10;29.40;83.30
11242;DHT22;5678;52.370;9.006;2022-07-17T12:03:38;29.50;83.90
11242;DHT22;5678;52.370;9.006;2022-07-17T12:06:06;29.50;85.80
11242;DHT22;5678;52.370;9.006;2022-07-17T12:08:36;29.90;86.50
11242;DHT22;5678;52.370;9.006;2022-07-17T12:11:06;29.90;83.50
11242;DHT22;5678;52.370;9.006;2022-07-17T12:13:39;29.80;82.10
11242;DHT22;5678;52.370;9.006;2022-07-17T12:16:35;29.50;80.30
11242;DHT22;5678;52.370;9.006;2022-07-17T12:19:07;29.50;81.30
11242;DHT22;5678;52.370;9.006;2022-07-17T12:21:54;29.20;84.10
11242;DHT22;5678;52.370;9.006;2022-07-17T12:24:26;29.40;86.60
11242;DHT22;5678;52.370;9.006;2022-07-17T12:26:55;29.80;82.30
11242;DHT22;5678;52.370;9.006;2022-07-17T12:29:24;28.90;79.10
11242;DHT22;5678;52.370;9.006;2022-07-17T12:32:06;28.50;81.10
11242;DHT22;5678;52.370;9.006;2022-07-17T12:34:35;27.90;80.50
11242;DHT22;5678;52.370;9.006;2022-07-17T12:37:04;27.70;84.50
11242;DHT22;5678;52.370;9.006;2022-07-17T12:39:33;27.80;84.50
11242;DHT22;5678;52.370;9.006;2022-07-17T12:42:02;27.80;83.50
11242;DHT22;5678;52.370;9.006;2022-07-17T12:44:30;27.80;82.00
11242;DHT22;5678;52.370;9.006;2022-07-17T12:46:58;27.80;85.10
11242;DHT22;5678;52.370;9.006;2022-07-17T12:49:26;28.10;86.70
11242;DHT22;5678;52.370;9.006;2022-07-17T12:51:54;28.50;81.50
11242;DHT22;5678;52.370;9.006;2022-07-17T12:54:22;28.80;83.20
11242;DHT22;5678;52.370;9.006;2022-07-17T12:56:54;28.90;81.40
11242;DHT22;5678;52.370;9.006;2022-07-17T12:59:21;28.90;78.60
11242;DHT22;5678;52.370;9.006;2022-07-17T13:01:50;28.90;79.90
11242;DHT22;5678;52.370;9.006;2022-07-17T13:04:18;29.20;81.60
11242;DHT22;5678;52.370;9.006;2022-07-17T13:06:48;29.30;81.00
11242;DHT22;5678;52.370;9.006;2022-07-17T13:09:16;29.50;77.10
11242;DHT22;5678;52.370;9.006;2022-07-17T13:11:46;29.60;82.20
11242;DHT22;5678;52.370;9.006;2022-07-17T13:14:15;29.90;79.80
11242;DHT22;5678;52.370;9.006;2022-07-17T13:16:43;29.80;78.50
11242;DHT22;5678;52.370;9.006;2022-07-17T13:19:12;29.90;80.90
11242;DHT22;5678;52.370;9.006;2022-07-17T13:21:40;30.00;79.60
11242;DHT22;5678;52.370;9.006;2022-07-17T13:24:08;30.00;75.10
11242;DHT22;5678;52.370;9.006;2022-07-17T13:26:36;29.90;73.80
11242;DHT22;5678;52.370;9.006;2022-07-17T13:29:03;29.90;75.10
11242;DHT22;5678;52.370;9.006;2022-07-17T13:31:34;30.10;75.40
11242;DHT22;5678;52.370;9.006;2022-07-17T13:34:02;30.20;76.40
11242;DHT22;5678;52.370;9.006;2022-07-17T13:36:30;30.20;76.90
11242;DHT22;5678;52.370;9.006;2022-07-17T13:38:58;30.00;73.00
11242;DHT22;5678;52.370;9.006;2022-07-17T13:41:26;30.00;73.70
11242;DHT22;5678;52.370;9.006;2022-07-17T13:43:54;29.90;74.20
11242;DHT22;5678;52.370;9.006;2022-07-17T13:46:22;29.90;74.80
11242;DHT22;5678;52.370;9.006;2022-07-17T13:48:51;29.90;72.70
11242;DHT22;5678;52.370;9.006;2022-07-17T13:51:19;29.60;76.50
11242;DHT22;5678;52.370;9.006;2022-07-17T13:53:47;29.60;74.40
11242;DHT22;5678;52.370;9.006;2022-07-17T13:56:16;29.50;75.60
11242;DHT22;5678;52.370;9.006;2022-07-17T13:58:44;29.50;77.50
11242;DHT22;5678;52.370;9.006;2022-07-17T14:01:12;29.50;77.10
11242;DHT22;5678;52.370;9.006;2022-07-17T14:03:48;29.80;76.50
11242;DHT22;5678;52.370;9.006;2022-07-17T14:06:17;29.90;76.50
11242;DHT22;5678;52.370;9.006;2022-07-17T14:08:45;29.90;73.50
11242;DHT22;5678;52.370;9.006;2022-07-17T14:11:13;29.60;73.70
11242;DHT22;5678;52.370;9.006;2022-07-17T14:13:41;29.40;71.60
11242;DHT22;5678;52.370;9.006;2022-07-17T14:16:16;29.40;73.10
11242;DHT22;5678;52.370;9.006;2022-07-17T14:18:44;29.30;71.00
11242;DHT22;5678;52.370;9.006;2022-07-17T14:21:28;29.00;70.90
11242;DHT22;5678;52.370;9.006;2022-07-17T14:23:56;28.60;70.90
11242;DHT22;5678;52.370;9.006;2022-07-17T14:26:25;28.40;70.20
11242;DHT22;5678;52.370;9.006;2022-07-17T14:28:53;28.20;75.20
11242;DHT22;5678;52.370;9.006;2022-07-17T14:31:21;28.40;77.40
11242;DHT22;5678;52.370;9.006;2022-07-17T14:33:50;28.60;74.40
11242;DHT22;5678;52.370;9.006;2022-07-17T14:36:18;28.80;71.60
11242;DHT22;5678;52.370;9.006;2022-07-17T14:38:47;28.80;74.00
11242;DHT22;5678;52.370;9.006;2022-07-17T14:41:16;28.80;73.00
11242;DHT22;5678;52.370;9.006;2022-07-17T14:43:43;29.00;74.30
11242;DHT22;5678;52.370;9.006;2022-07-17T14:46:11;29.00;74.30
11242;DHT22;5678;52.370;9.006;2022-07-17T14:48:39;29.10;72.80
11242;DHT22;5678;52.370;9.006;2022-07-17T14:51:07;28.70;74.50
11242;DHT22;5678;52.370;9.006;2022-07-17T14:53:35;28.60;76.40
11242;DHT22;5678;52.370;9.006;2022-07-17T14:56:05;28.80;74.20
11242;DHT22;5678;52.370;9.006;2022-07-17T14:58:33;28.70;76.70
11242;DHT22;5678;52.370;9.006;2022-07-17T15:01:01;28.80;75.60
11242;DHT22;5678;52.370;9.006;2022-07-17T15:03:30;29.00;73.80
11242;DHT22;5678;52.370;9.006;2022-07-17T15:05:58;28.80;71.40
11242;DHT22;5678;52.370;9.006;2022-07-17T15:08:27;28.70;70.30
11242;DHT22;5678;52.370;9.006;2022-07-17T15:10:55;28.70;69.10
11242;DHT22;5678;52.370;9.006;2022-07-17T15:13:25;28.50;74.00
11242;DHT22;5678;52.370;9.006;2022-07-17T15:15:53;28.60;70.30
11242;DHT22;5678;52.370;9.006;2022-07-17T15:18:21;28.50;69.90
11242;DHT22;5678;52.370;9.006;2022-07-17T15:20:49;28.50;71.60
11242;DHT22;5678;52.370;9.006;2022-07-17T15:23:17;28.60;72.20
11242;DHT22;5678;52.370;9.006;2022-07-17T15:25:45;28.70;71.70
11242;DHT22;5678;52.370;9.006;2022-07-17T15:28:13;28.70;70.30
11242;DHT22;5678;52.370;9.006;2022-07-17T15:30:42;28.60;72.70
11242;DHT22;5678;52.370;9.006;2022-07-17T15:33:10;28.70;72.40
11242;DHT22;5678;52.370;9.006;2022-07-17T15:35:39;28.70;70.20
11242;DHT22;5678;52.370;9.006;2022-07-17T15:38:07;28.60;73.30
11242;DHT22;5678;52.370;9.006;2022-07-17T15:40:35;28.70;70.10
11242;DHT22;5678;52.370;9.006;2022-07-17T15:43:03;28.70;71.80
11242;DHT22;5678;52.370;9.006;2022-07-17T15:45:31;28.60;73.30
11242;DHT22;5678;52.370;9.006;2022-07-17T15:48:01;28.70;69.80
11242;DHT22;5678;52.370;9.006;2022-07-17T15:50:29;28.70;67.10
11242;DHT22;5678;52.370;9.006;2022-07-17T15:52:57;28.80;68.10
11242;DHT22;5678;52.370;9.006;2022-07-17T15:55:24;28.80;68.50
11242;DHT22;5678;52.370;9.006;2022-07-17T15:57:52;28.90;67.90
11242;DHT22;5678;52.370;9.006;2022-07-17T16:00:21;28.70;67.80
11242;DHT22;5678;52.370;9.006;2022-07-17T16:02:49;28.50;67.00